Time;durP1;ratioP1;P1;durP2;ratioP2;P2;SDS_P1;SDS_P2;PMS_P1;PMS_P2;Temp;Humidity;BMP_temperature;BMP_pressure;BME280_temperature;BME280_humidity;BME280_pressure;Samples;Min_cycle;Max_cycle;Signal;HPM_P1;HPM_P2
2023/07/22 00:01:42;;;;;;;0.10;0.10;;;;;;;13.95;96.48;101263.97;5058834;28;20028;-50
2023/07/22 00:04:07;;;;;;;0.10;0.10;;;;;;;13.91;96.47;101267.34;5058633;28;20103;-49
2023/07/22 00:06:32;;;;;;;0.10;0.10;;;;;;;13.90;96.67;101256.06;5058484;28;20025;-50
2023/07/22 00:08:58;;;;;;;0.10;0.10;;;;;;;13.90;96.71;101261.25;5059392;28;20116;-51
2023/07/22 00:11:23;;;;;;;0.10;0.10;;;;;;;13.91;96.60;101267.34;5058504;28;20104;-49
2023/07/22 00:13:48;;;;;;;0.10;0.10;;;;;;;13.94;96.50;101264.81;5059095;28;20033;-50
2023/07/22 00:16:14;;;;;;;0.10;0.10;;;;;;;13.91;96.75;101263.03;5059176;28;20020;-49
2023/07/22 00:18:39;;;;;;;0.10;0.10;;;;;;;13.94;96.95;101265.69;5058226;28;20036;-50
2023/07/22 00:21:05;;;;;;;0.10;0.10;;;;;;;13.96;97.04;101257.94;5058656;28;20021;-49
2023/07/22 00:23:30;;;;;;;0.10;0.10;;;;;;;13.96;97.26;101260.53;5058887;28;20025;-50
2023/07/22 00:25:56;;;;;;;0.10;0.10;;;;;;;13.95;97.28;101261.38;5058557;28;20043;-50
2023/07/22 00:28:21;;;;;;;0.10;0.10;;;;;;;13.98;97.26;101258.84;5059054;28;20461;-50
2023/07/22 00:30:48;;;;;;;0.10;0.10;;;;;;;13.98;96.99;101261.44;5058177;28;20029;-48
2023/07/22 00:33:14;;;;;;;0.10;0.10;;;;;;;14.02;97.12;101264.97;5058914;28;20028;-51
2023/07/22 00:35:39;;;;;;;0.10;0.10;;;;;;;14.03;96.88;101257.22;5058511;28;20025;-50
2023/07/22 00:38:05;;;;;;;0.10;0.10;;;;;;;13.99;96.63;101265.78;5058615;28;20032;-50
2023/07/22 00:40:32;;;;;;;0.10;0.10;;;;;;;13.92;97.53;101269.09;5058568;28;20017;-50
2023/07/22 00:42:58;;;;;;;0.10;0.10;;;;;;;13.81;99.30;101272.31;5058865;28;20068;-48
2023/07/22 00:45:24;;;;;;;0.10;0.10;;;;;;;13.86;99.22;101268.94;5058142;28;20033;-45
2023/07/22 00:47:49;;;;;;;0.10;0.10;;;;;;;13.87;100.00;101265.53;5058456;28;20059;-46
2023/07/22 00:50:15;;;;;;;0.10;0.10;;;;;;;13.73;100.00;101262.59;5058740;28;20507;-49
2023/07/22 00:52:40;;;;;;;0.10;0.10;;;;;;;13.61;100.00;101258.03;5057956;28;20467;-49
2023/07/22 00:55:06;;;;;;;0.10;0.10;;;;;;;13.62;100.00;101255.47;5058469;28;20032;-49
2023/07/22 00:57:32;;;;;;;0.10;0.10;;;;;;;13.52;100.00;101247.41;5058564;28;20036;-50
2023/07/22 00:59:57;;;;;;;0.20;0.20;;;;;;;13.42;100.00;101247.19;5057936;28;20099;-51
2023/07/22 01:02:23;;;;;;;0.10;0.10;;;;;;;13.34;100.00;101246.13;5054446;28;20063;-47
2023/07/22 01:04:50;;;;;;;0.10;0.10;;;;;;;13.32;100.00;101255.53;5055572;28;20427;-50
2023/07/22 01:07:16;;;;;;;0.10;0.10;;;;;;;13.26;100.00;101247.63;5055090;28;20033;-50
2023/07/22 01:09:42;;;;;;;0.10;0.10;;;;;;;13.20;100.00;101247.50;5055239;28;20017;-47
2023/07/22 01:12:09;;;;;;;0.20;0.20;;;;;;;13.21;100.00;101252.69;5055845;28;20035;-50
2023/07/22 01:14:40;;;;;;;0.10;0.10;;;;;;;13.21;100.00;101249.22;5054519;28;20028;-48
2023/07/22 01:17:08;;;;;;;0.10;0.10;;;;;;;13.21;100.00;101244.03;5055232;28;20033;-49
2023/07/22 01:19:34;;;;;;;0.10;0.10;;;;;;;13.22;100.00;101243.22;5054855;28;20086;-47
2023/07/22 01:22:01;;;;;;;0.10;0.10;;;;;;;13.17;100.00;101240.53;5054967;28;20021;-48
2023/07/22 01:24:28;;;;;;;0.10;0.10;;;;;;;13.22;100.00;101241.53;5054701;28;20414;-50
2023/07/22 01:26:54;;;;;;;0.10;0.10;;;;;;;13.25;100.00;101232.97;5054719;28;20287;-47
2023/07/22 01:29:21;;;;;;;0.15;0.15;;;;;;;13.23;100.00;101244.97;5054837;28;20036;-46
2023/07/22 01:31:50;;;;;;;0.10;0.10;;;;;;;13.22;100.00;101233.75;5054930;28;20021;-50
2023/07/22 01:34:16;;;;;;;0.10;0.10;;;;;;;13.24;100.00;101229.47;5054648;28;20029;-49
2023/07/22 01:36:43;;;;;;;0.10;0.10;;;;;;;13.26;100.00;101230.41;5054517;28;20029;-50
2023/07/22 01:39:08;;;;;;;0.10;0.10;;;;;;;13.25;100.00;101232.97;5055188;28;20021;-49
2023/07/22 01:41:33;;;;;;;0.10;0.10;;;;;;;13.21;100.00;101228.50;5054011;28;20451;-47
2023/07/22 01:43:59;;;;;;;0.10;0.10;;;;;;;13.24;100.00;101226.03;5054724;28;20049;-50
2023/07/22 01:46:25;;;;;;;0.10;0.10;;;;;;;13.22;100.00;101220.81;5054493;28;20025;-49
2023/07/22 01:48:50;;;;;;;0.10;0.10;;;;;;;13.22;100.00;101222.50;5054425;28;20036;-49
2023/07/22 01:51:16;;;;;;;0.10;0.10;;;;;;;13.23;100.00;101219.09;5054482;28;20051;-49
2023/07/22 01:53:41;;;;;;;0.10;0.10;;;;;;;13.24;100.00;101226.88;5054634;28;20621;-49
2023/07/22 01:56:06;;;;;;;0.10;0.10;;;;;;;13.23;100.00;101219.94;5053960;28;20025;-49
2023/07/22 01:58:32;;;;;;;0.20;0.20;;;;;;;13.26;100.00;101219.16;5054031;28;20158;-47
2023/07/22 02:00:58;;;;;;;0.20;0.20;;;;;;;13.21;100.00;101215.56;5054492;28;20025;-49
2023/07/22 02:03:23;;;;;;;0.10;0.10;;;;;;;13.24;100.00;101220.84;5053695;28;20389;-50
2023/07/22 02:05:48;;;;;;;0.10;0.10;;;;;;;13.22;100.00;101223.41;5054383;28;20373;-51
2023/07/22 02:08:14;;;;;;;0.10;0.10;;;;;;;13.23;100.00;101222.53;5054152;28;20469;-49
2023/07/22 02:10:39;;;;;;;0.10;0.10;;;;;;;13.24;100.00;101219.13;5053473;28;20477;-50
2023/07/22 02:13:04;;;;;;;0.10;0.10;;;;;;;13.26;100.00;101224.31;5052864;28;20115;-49
2023/07/22 02:15:31;;;;;;;0.10;0.10;;;;;;;13.24;100.00;101215.66;5053798;28;20155;-50
2023/07/22 02:17:57;;;;;;;0.10;0.10;;;;;;;13.23;100.00;101209.59;5053506;28;20025;-49
2023/07/22 02:20:22;;;;;;;0.10;0.10;;;;;;;13.25;100.00;101207.06;5053828;28;20048;-45
2023/07/22 02:22:48;;;;;;;0.10;0.10;;;;;;;13.25;100.00;101209.66;5054171;28;20028;-48
2023/07/22 02:25:14;;;;;;;0.10;0.10;;;;;;;13.23;100.00;101207.00;5053365;28;20029;-47
2023/07/22 02:27:40;;;;;;;0.10;0.10;;;;;;;13.23;100.00;101200.97;5053531;28;20538;-50
2023/07/22 02:30:10;;;;;;;0.10;0.10;;;;;;;13.20;100.00;101200.91;5053833;28;20033;-50
2023/07/22 02:32:36;;;;;;;0.13;0.13;;;;;;;13.16;100.00;101200.81;5052741;28;20492;-49
2023/07/22 02:35:02;;;;;;;0.10;0.10;;;;;;;13.11;100.00;101199.81;5053984;28;20051;-50
2023/07/22 02:37:27;;;;;;;0.13;0.13;;;;;;;13.12;100.00;101200.72;5052934;28;20103;-49
2023/07/22 02:39:54;;;;;;;0.10;0.10;;;;;;;13.07;100.00;101197.13;5053614;28;20021;-49
2023/07/22 02:42:20;;;;;;;0.10;0.10;;;;;;;13.07;100.00;101190.25;5053492;28;20045;-50
2023/07/22 02:44:45;;;;;;;0.20;0.20;;;;;;;13.01;100.00;101198.75;5052771;28;20025;-50
2023/07/22 02:47:10;;;;;;;0.10;0.10;;;;;;;12.97;100.00;101203.78;5053476;28;20070;-51
2023/07/22 02:49:36;;;;;;;0.10;0.10;;;;;;;12.89;100.00;101192.38;5053501;28;20023;-50
2023/07/22 02:52:01;;;;;;;0.10;0.10;;;;;;;12.83;100.00;101196.56;5053129;28;20025;-49
2023/07/22 02:54:26;;;;;;;0.10;0.10;;;;;;;12.79;100.00;101199.00;5052862;28;20388;-49
2023/07/22 02:56:52;;;;;;;0.10;0.10;;;;;;;12.77;100.00;101204.16;5053491;28;20029;-46
2023/07/22 02:59:17;;;;;;;0.10;0.10;;;;;;;12.74;100.00;101193.69;5052745;28;20017;-50
2023/07/22 03:01:43;;;;;;;0.10;0.10;;;;;;;12.73;100.00;101201.44;5052713;28;20029;-50
2023/07/22 03:04:09;;;;;;;0.10;0.10;;;;;;;12.66;100.00;101205.56;5053500;28;20037;-48
2023/07/22 03:06:34;;;;;;;0.10;0.10;;;;;;;12.59;100.00;101204.53;5052622;28;20017;-50
2023/07/22 03:09:00;;;;;;;0.10;0.10;;;;;;;12.50;100.00;101210.31;5053232;28;20032;-48
2023/07/22 03:11:25;;;;;;;0.10;0.10;;;;;;;12.46;100.00;101213.66;5052877;28;20074;-50
2023/07/22 03:13:51;;;;;;;0.10;0.10;;;;;;;12.44;100.00;101210.16;5052541;28;20029;-50
2023/07/22 03:16:16;;;;;;;0.10;0.10;;;;;;;12.34;100.00;101200.38;5052819;28;20036;-48
2023/07/22 03:18:43;;;;;;;0.10;0.10;;;;;;;12.33;100.00;101208.97;5052683;28;20033;-48
2023/07/22 03:21:08;;;;;;;0.10;0.10;;;;;;;12.33;100.00;101216.72;5052537;28;20082;-50
2023/07/22 03:23:34;;;;;;;0.10;0.10;;;;;;;12.30;100.00;101221.81;5052367;28;20025;-49
2023/07/22 03:26:00;;;;;;;0.10;0.10;;;;;;;12.27;100.00;101221.75;5053088;28;20032;-50
2023/07/22 03:28:25;;;;;;;0.13;0.13;;;;;;;12.26;100.00;101227.72;5051710;28;20412;-50
2023/07/22 03:30:51;;;;;;;0.10;0.10;;;;;;;12.25;100.00;101223.38;5052826;28;20079;-49
2023/07/22 03:33:16;;;;;;;0.10;0.10;;;;;;;12.12;100.00;101220.47;5052914;28;20017;-50
2023/07/22 03:35:42;;;;;;;0.20;0.20;;;;;;;12.15;100.00;101222.28;5051648;28;20029;-50
2023/07/22 03:38:07;;;;;;;0.10;0.10;;;;;;;12.09;100.00;101222.94;5052904;28;20031;-49
2023/07/22 03:40:33;;;;;;;0.20;0.20;;;;;;;12.05;100.00;101221.09;5051898;28;20032;-46
2023/07/22 03:42:59;;;;;;;0.10;0.10;;;;;;;12.04;100.00;101219.34;5052507;28;20048;-51
2023/07/22 03:45:24;;;;;;;0.10;0.10;;;;;;;12.04;100.00;101219.34;5052282;28;20029;-50
2023/07/22 03:47:57;;;;;;;0.10;0.10;;;;;;;12.07;100.00;101221.16;5052158;28;20051;-50
2023/07/22 03:50:22;;;;;;;0.17;0.13;;;;;;;12.02;100.00;101221.91;5052224;28;20025;-46
2023/07/22 03:52:48;;;;;;;0.10;0.10;;;;;;;12.04;100.00;101214.19;5052502;28;20116;-45
2023/07/22 03:55:13;;;;;;;0.10;0.10;;;;;;;12.02;100.00;101215.88;5052016;28;20060;-47
2023/07/22 03:57:39;;;;;;;0.20;0.20;;;;;;;12.01;100.00;101216.69;5052054;28;20485;-49
2023/07/22 04:00:05;;;;;;;0.10;0.10;;;;;;;12.02;100.00;101216.72;5052811;28;20349;-49
2023/07/22 04:02:30;;;;;;;0.10;0.10;;;;;;;12.07;100.00;101224.63;5051824;28;20025;-50
2023/07/22 04:04:56;;;;;;;0.15;0.15;;;;;;;12.07;100.00;101213.41;5052468;28;20388;-45
2023/07/22 04:07:22;;;;;;;0.10;0.10;;;;;;;12.08;100.00;101216.03;5052731;28;20033;-45
2023/07/22 04:09:48;;;;;;;0.10;0.10;;;;;;;12.06;100.00;101217.69;5051799;28;20033;-46
2023/07/22 04:12:13;;;;;;;0.10;0.10;;;;;;;12.09;100.00;101212.59;5052124;28;20033;-48
2023/07/22 04:14:39;;;;;;;0.10;0.10;;;;;;;12.07;100.00;101213.41;5052106;28;20017;-48
2023/07/22 04:17:05;;;;;;;0.10;0.10;;;;;;;12.08;100.00;101212.56;5052059;28;20028;-50
2023/07/22 04:19:30;;;;;;;0.10;0.10;;;;;;;12.06;100.00;101217.69;5051833;28;20100;-48
2023/07/22 04:21:56;;;;;;;0.20;0.20;;;;;;;12.07;100.00;101215.97;5052473;28;20029;-45
2023/07/22 04:24:21;;;;;;;0.20;0.20;;;;;;;12.07;100.00;101219.47;5051647;28;20025;-50
2023/07/22 04:26:47;;;;;;;0.10;0.10;;;;;;;12.07;100.00;101219.47;5051759;28;20036;-49
2023/07/22 04:29:12;;;;;;;0.10;0.10;;;;;;;12.08;100.00;101221.19;5052462;28;20021;-50
2023/07/22 04:31:38;;;;;;;0.10;0.10;;;;;;;12.08;100.00;101218.59;5051413;28;20032;-46
2023/07/22 04:34:05;;;;;;;0.10;0.10;;;;;;;12.07;100.00;101224.63;5052410;28;20032;-46
2023/07/22 04:36:30;;;;;;;0.20;0.20;;;;;;;12.07;100.00;101223.72;5053734;28;20032;-47
2023/07/22 04:38:56;;;;;;;0.10;0.10;;;;;;;12.08;100.00;101225.50;5055257;28;20047;-48
2023/07/22 04:41:21;;;;;;;0.10;0.10;;;;;;;12.11;100.00;101225.56;5055889;28;20041;-44
2023/07/22 04:43:47;;;;;;;0.20;0.20;;;;;;;12.12;100.00;101233.38;5055533;28;20101;-48
2023/07/22 04:46:12;;;;;;;0.17;0.17;;;;;;;12.14;100.00;101231.72;5055192;28;20483;-46
2023/07/22 04:48:38;;;;;;;0.10;0.10;;;;;;;12.17;100.00;101229.22;5055671;28;20517;-48
2023/07/22 04:51:03;;;;;;;0.10;0.10;;;;;;;12.20;100.00;101220.69;5055300;28;20036;-47
2023/07/22 04:53:28;;;;;;;0.13;0.13;;;;;;;12.24;100.00;101230.28;5055317;28;20021;-47
2023/07/22 04:55:55;;;;;;;0.17;0.17;;;;;;;12.26;100.00;101225.16;5055690;28;20024;-50
2023/07/22 04:58:20;;;;;;;0.10;0.10;;;;;;;12.32;100.00;101230.50;5055317;28;20021;-44
2023/07/22 05:00:46;;;;;;;0.10;0.10;;;;;;;12.38;100.00;101225.47;5055290;28;20028;-48
2023/07/22 05:03:11;;;;;;;0.10;0.10;;;;;;;12.45;100.00;101230.00;5055487;28;20028;-50
2023/07/22 05:05:37;;;;;;;0.10;0.10;;;;;;;12.54;100.00;101229.38;5054738;28;20021;-45
2023/07/22 05:08:02;;;;;;;0.10;0.10;;;;;;;12.64;100.00;101239.16;5055193;28;20020;-44
2023/07/22 05:10:28;;;;;;;0.20;0.20;;;;;;;12.72;100.00;101247.13;5055188;28;20067;-46
2023/07/22 05:12:54;;;;;;;0.15;0.15;;;;;;;12.80;100.00;101239.56;5054702;28;20052;-51
2023/07/22 05:15:20;;;;;;;0.20;0.20;;;;;;;12.86;100.00;101234.56;5055276;28;20056;-46
2023/07/22 05:17:45;;;;;;;0.10;0.10;;;;;;;12.92;100.00;101239.00;5055240;28;20481;-46
2023/07/22 05:20:12;;;;;;;0.13;0.13;;;;;;;13.00;100.00;101242.66;5054822;28;20021;-50
2023/07/22 05:22:38;;;;;;;0.10;0.10;;;;;;;13.07;100.00;101234.22;5054647;28;20485;-49
2023/07/22 05:25:05;;;;;;;0.10;0.10;;;;;;;13.15;100.00;101242.19;5055155;28;20104;-48
2023/07/22 05:27:30;;;;;;;0.10;0.10;;;;;;;13.17;100.00;101237.94;5054008;28;20048;-46
2023/07/22 05:29:56;;;;;;;0.13;0.13;;;;;;;13.17;100.00;101245.69;5055058;28;20025;-48
2023/07/22 05:32:21;;;;;;;0.10;0.10;;;;;;;13.17;100.00;101238.81;5055186;28;20027;-50
2023/07/22 05:34:46;;;;;;;0.10;0.10;;;;;;;13.20;100.00;101234.56;5054042;28;20029;-49
2023/07/22 05:37:12;;;;;;;0.10;0.10;;;;;;;13.25;100.00;101245.91;5055047;28;20440;-46
2023/07/22 05:39:37;;;;;;;0.20;0.20;;;;;;;13.29;100.00;101237.38;5054551;28;20483;-46
2023/07/22 05:42:03;;;;;;;0.20;0.20;;;;;;;13.36;100.00;101251.31;5053820;28;20151;-51
2023/07/22 05:44:28;;;;;;;0.20;0.20;;;;;;;13.46;100.00;101235.22;5054558;28;20021;-46
2023/07/22 05:46:53;;;;;;;0.20;0.20;;;;;;;13.51;100.00;101236.19;5054508;28;20040;-51
2023/07/22 05:49:18;;;;;;;0.10;0.10;;;;;;;13.55;100.00;101238.00;5054030;28;20032;-45
2023/07/22 05:51:44;;;;;;;0.10;0.10;;;;;;;13.58;100.00;101237.22;5054426;28;20028;-45
2023/07/22 05:54:09;;;;;;;0.10;0.10;;;;;;;13.57;100.00;101236.34;5054331;28;20378;-46
2023/07/22 05:56:34;;;;;;;0.10;0.10;;;;;;;13.57;100.00;101231.16;5053655;28;20108;-45
2023/07/22 05:59:00;;;;;;;0.10;0.10;;;;;;;13.65;100.00;101228.75;5054760;28;20037;-46
2023/07/22 06:01:25;;;;;;;0.10;0.10;;;;;;;13.72;100.00;101224.59;5053726;28;20021;-50
2023/07/22 06:03:51;;;;;;;0.20;0.20;;;;;;;13.80;100.00;101229.09;5054326;28;20101;-48
2023/07/22 06:06:16;;;;;;;0.10;0.10;;;;;;;13.89;100.00;101218.06;5054463;28;20044;-50
2023/07/22 06:08:41;;;;;;;0.10;0.10;;;;;;;13.93;100.00;101225.06;5053448;28;20029;-46
2023/07/22 06:11:07;;;;;;;0.10;0.10;;;;;;;14.04;100.00;101225.28;5054522;28;20017;-45
2023/07/22 06:13:32;;;;;;;0.10;0.10;;;;;;;14.13;100.00;101233.25;5054135;28;20429;-48
2023/07/22 06:15:57;;;;;;;0.10;0.10;;;;;;;14.20;100.00;101228.22;5053763;28;20047;-50
2023/07/22 06:18:23;;;;;;;0.10;0.10;;;;;;;14.28;100.00;101221.44;5053514;28;20500;-45
2023/07/22 06:20:49;;;;;;;0.10;0.10;;;;;;;14.35;100.00;101228.53;5054099;28;20018;-46
2023/07/22 06:23:14;;;;;;;0.10;0.10;;;;;;;14.48;100.00;101225.31;5053461;28;20036;-45
2023/07/22 06:25:39;;;;;;;0.10;0.10;;;;;;;14.54;100.00;101223.69;5053417;28;20044;-48
2023/07/22 06:28:06;;;;;;;0.10;0.10;;;;;;;14.63;100.00;101226.47;5054098;28;20068;-46
2023/07/22 06:30:32;;;;;;;0.10;0.10;;;;;;;14.68;100.00;101227.47;5052968;28;20461;-46
2023/07/22 06:32:57;;;;;;;0.00;0.00;;;;;;;14.76;100.00;101223.28;5053774;28;20032;-47
2023/07/22 06:35:22;;;;;;;0.10;0.10;;;;;;;14.86;100.00;101226.03;5053624;28;20468;-48
2023/07/22 06:37:48;;;;;;;0.10;0.10;;;;;;;14.90;100.00;101217.47;5053243;28;20091;-45
2023/07/22 06:40:13;;;;;;;0.10;0.10;;;;;;;14.96;100.00;101222.78;5053413;28;20048;-50
2023/07/22 06:42:38;;;;;;;0.10;0.10;;;;;;;15.01;100.00;101208.16;5053246;28;20106;-48
2023/07/22 06:45:05;;;;;;;0.10;0.10;;;;;;;15.01;100.00;101210.75;5052953;28;20123;-46
2023/07/22 06:47:30;;;;;;;0.10;0.10;;;;;;;15.05;100.00;101212.53;5053377;28;20041;-50
2023/07/22 06:49:56;;;;;;;0.10;0.10;;;;;;;15.09;100.00;101206.56;5053545;28;20021;-51
2023/07/22 06:52:21;;;;;;;0.13;0.13;;;;;;;15.19;100.00;101204.97;5052740;28;20032;-47
2023/07/22 06:54:46;;;;;;;0.10;0.10;;;;;;;15.28;100.00;101199.06;5053148;28;20017;-51
2023/07/22 06:57:12;;;;;;;0.10;0.10;;;;;;;15.37;100.00;101199.22;5053617;28;20031;-46
2023/07/22 06:59:37;;;;;;;0.10;0.10;;;;;;;15.50;100.00;101202.00;5051805;28;20033;-46
2023/07/22 07:02:04;;;;;;;0.10;0.10;;;;;;;15.75;100.00;101203.22;5053454;28;20064;-49
2023/07/22 07:04:30;;;;;;;0.10;0.10;;;;;;;15.93;100.00;101200.03;5052658;28;20021;-46
2023/07/22 07:06:55;;;;;;;0.10;0.10;;;;;;;16.03;100.00;101201.03;5052931;28;20373;-50
2023/07/22 07:09:21;;;;;;;0.10;0.10;;;;;;;16.24;99.25;101203.91;5053089;28;20076;-46
2023/07/22 07:11:46;;;;;;;0.10;0.10;;;;;;;16.40;98.95;101198.88;5052537;28;20029;-48
2023/07/22 07:14:12;;;;;;;0.10;0.10;;;;;;;16.44;98.33;101206.72;5053503;28;20037;-51
2023/07/22 07:16:38;;;;;;;0.15;0.10;;;;;;;16.42;98.64;101202.34;5052783;28;20385;-46
2023/07/22 07:19:03;;;;;;;0.10;0.10;;;;;;;16.40;98.16;101207.53;5052586;28;20024;-47
2023/07/22 07:21:28;;;;;;;0.10;0.10;;;;;;;16.37;98.18;101207.53;5052440;28;20029;-45
2023/07/22 07:23:54;;;;;;;0.10;0.10;;;;;;;16.44;98.22;101211.06;5052877;28;20029;-50
2023/07/22 07:26:20;;;;;;;0.10;0.10;;;;;;;16.46;96.98;101206.72;5052709;28;20498;-46
2023/07/22 07:28:47;;;;;;;0.10;0.10;;;;;;;16.58;97.58;101206.00;5052576;28;20036;-45
2023/07/22 07:31:12;;;;;;;0.10;0.10;;;;;;;16.76;98.76;101210.53;5052841;28;20021;-47
2023/07/22 07:33:38;;;;;;;0.10;0.10;;;;;;;16.76;96.50;101206.19;5052065;28;20017;-45
2023/07/22 07:36:04;;;;;;;0.10;0.10;;;;;;;16.72;95.93;101209.63;5052588;28;20029;-47
2023/07/22 07:38:29;;;;;;;0.03;0.03;;;;;;;16.63;96.09;101205.19;5052535;28;20029;-45
2023/07/22 07:40:59;;;;;;;0.10;0.10;;;;;;;16.64;96.40;101208.66;5051991;28;20083;-49
2023/07/22 07:43:25;;;;;;;0.10;0.10;;;;;;;16.78;95.91;101206.19;5052677;28;20021;-49
2023/07/22 07:46:10;;;;;;;0.10;0.10;;;;;;;16.74;95.29;101213.09;5052767;28;20028;-49
2023/07/22 07:48:36;;;;;;;0.10;0.10;;;;;;;16.84;95.32;101208.00;5050744;28;20103;-45
2023/07/22 07:51:01;;;;;;;0.08;0.08;;;;;;;16.92;94.86;101206.38;5052602;28;20021;-46
2023/07/22 07:53:26;;;;;;;0.05;0.05;;;;;;;17.19;94.27;101204.88;5052302;28;20029;-45
2023/07/22 07:55:58;;;;;;;0.10;0.10;;;;;;;17.19;94.06;101205.72;5051899;28;20028;-48
2023/07/22 07:58:23;;;;;;;0.10;0.10;;;;;;;17.44;92.87;101208.50;5052253;28;20510;-49
2023/07/22 08:00:48;;;;;;;0.10;0.10;;;;;;;17.34;91.92;101210.19;5052038;28;20469;-51
2023/07/22 08:03:14;;;;;;;0.10;0.10;;;;;;;17.35;92.22;101211.06;5052440;28;20052;-49
2023/07/22 08:05:39;;;;;;;0.10;0.10;;;;;;;17.48;91.62;101206.81;5052189;28;20021;-50
2023/07/22 08:08:05;;;;;;;0.10;0.10;;;;;;;17.64;91.38;101207.75;5051766;28;20108;-45
2023/07/22 08:10:30;;;;;;;0.10;0.10;;;;;;;17.61;90.32;101213.81;5054005;28;20110;-50
2023/07/22 08:12:55;;;;;;;0.10;0.10;;;;;;;17.81;90.05;101213.97;5056838;28;20527;-46
2023/07/22 08:15:21;;;;;;;0.10;0.10;;;;;;;17.89;88.53;101212.25;5056071;28;20033;-46
2023/07/22 08:17:46;;;;;;;0.10;0.10;;;;;;;17.97;87.85;101211.47;5055933;28;20373;-51
2023/07/22 08:20:11;;;;;;;0.10;0.10;;;;;;;17.97;88.00;101207.09;5056345;28;20034;-51
2023/07/22 08:22:37;;;;;;;0.10;0.10;;;;;;;17.91;87.97;101207.94;5055726;28;20350;-51
2023/07/22 08:25:02;;;;;;;0.10;0.10;;;;;;;17.87;86.97;101210.50;5056204;28;20032;-49
2023/07/22 08:27:28;;;;;;;0.08;0.08;;;;;;;17.84;87.31;101213.97;5056067;28;20033;-45
2023/07/22 08:29:53;;;;;;;0.08;0.08;;;;;;;17.88;87.82;101213.13;5055792;28;20107;-47
2023/07/22 08:32:18;;;;;;;0.10;0.10;;;;;;;17.63;86.87;101219.94;5056139;28;20020;-48
2023/07/22 08:34:44;;;;;;;0.10;0.10;;;;;;;17.67;88.33;101219.09;5055988;28;20033;-48
2023/07/22 08:37:09;;;;;;;0.00;0.00;;;;;;;17.90;89.27;101221.81;5055305;28;20025;-48
2023/07/22 08:39:35;;;;;;;0.03;0.03;;;;;;;18.08;86.82;101220.22;5055841;28;20054;-47
2023/07/22 08:42:03;;;;;;;0.10;0.10;;;;;;;18.10;86.39;101216.75;5055962;28;20095;-50
2023/07/22 08:44:34;;;;;;;0.00;0.00;;;;;;;18.22;86.71;101217.66;5054912;28;20083;-47
2023/07/22 08:46:59;;;;;;;0.10;0.10;;;;;;;18.34;85.12;101207.25;5055843;28;20443;-50
2023/07/22 08:49:26;;;;;;;0.00;0.00;;;;;;;18.36;80.10;101215.97;5055522;28;20025;-45
2023/07/22 08:51:54;;;;;;;0.10;0.10;;;;;;;18.73;82.58;101216.06;5055214;28;20029;-45
2023/07/22 08:54:20;;;;;;;0.00;0.00;;;;;;;19.05;81.05;101206.56;5055855;28;20099;-45
2023/07/22 08:56:45;;;;;;;0.00;0.00;;;;;;;19.16;78.95;101210.03;5055418;28;20055;-50
2023/07/22 08:59:12;;;;;;;0.00;0.00;;;;;;;19.32;79.27;101212.66;5054790;28;20025;-47
2023/07/22 09:01:39;;;;;;;0.05;0.05;;;;;;;19.89;76.59;101215.16;5055216;28;20021;-45
2023/07/22 09:04:05;;;;;;;0.10;0.10;;;;;;;19.74;73.63;101216.03;5055036;28;20541;-46
2023/07/22 09:06:31;;;;;;;0.10;0.10;;;;;;;19.81;72.79;101215.16;5055189;28;20025;-50
2023/07/22 09:08:57;;;;;;;0.00;0.00;;;;;;;19.81;71.90;101219.53;5055531;28;20078;-47
2023/07/22 09:11:23;;;;;;;0.00;0.00;;;;;;;19.85;71.44;101216.91;5054621;28;20021;-49
2023/07/22 09:13:51;;;;;;;0.00;0.00;;;;;;;19.87;70.24;101214.28;5055235;28;20025;-51
2023/07/22 09:16:17;;;;;;;;;;;;;;;20.19;71.01;101211.59;5055728;28;20028;-51
2023/07/22 09:18:42;;;;;;;0.00;0.00;;;;;;;20.14;69.57;101217.69;5054512;28;20070;-51
2023/07/22 09:21:08;;;;;;;0.00;0.00;;;;;;;19.81;66.25;101209.94;5054779;28;20090;-50
2023/07/22 09:23:35;;;;;;;0.00;0.00;;;;;;;19.84;68.22;101214.31;5054798;28;20025;-45
2023/07/22 09:26:15;;;;;;;0.05;0.05;;;;;;;20.06;68.90;101210.75;5054606;28;20029;-51
2023/07/22 09:28:54;;;;;;;0.00;0.00;;;;;;;20.11;71.14;101212.47;5054759;28;20082;-48
2023/07/22 09:31:24;;;;;;;0.00;0.00;;;;;;;20.41;70.15;101211.44;5054961;28;20388;-46
2023/07/22 09:33:50;;;;;;;0.00;0.00;;;;;;;20.46;67.30;101208.81;5054329;28;20108;-46
2023/07/22 09:36:16;;;;;;;0.00;0.00;;;;;;;20.53;66.77;101210.53;5055091;28;20064;-45
2023/07/22 09:38:41;;;;;;;0.00;0.00;;;;;;;20.29;67.26;101206.28;5054678;28;20025;-51
2023/07/22 09:41:07;;;;;;;0.00;0.00;;;;;;;20.09;65.09;101203.75;5053907;28;20060;-45
2023/07/22 09:43:37;;;;;;;0.00;0.00;;;;;;;20.05;65.30;101206.41;5054550;28;20532;-46
2023/07/22 09:46:08;;;;;;;0.00;0.00;;;;;;;20.20;66.22;101201.97;5054972;28;20033;-48
2023/07/22 09:48:41;;;;;;;0.10;0.10;;;;;;;20.25;66.89;101205.44;5053704;28;20033;-45
2023/07/22 09:51:12;;;;;;;0.00;0.00;;;;;;;20.14;65.21;101209.84;5054548;28;20511;-46
2023/07/22 09:53:38;;;;;;;0.00;0.00;;;;;;;20.18;64.89;101194.13;5053845;28;20722;-46
2023/07/22 09:56:06;;;;;;;0.00;0.00;;;;;;;20.24;64.73;101198.44;5054288;28;20465;-51
2023/07/22 09:58:32;;;;;;;0.00;0.00;;;;;;;20.22;65.58;101192.38;5054417;28;20025;-51
2023/07/22 10:00:58;;;;;;;0.10;0.10;;;;;;;20.31;66.25;101184.47;5054271;28;20025;-46
2023/07/22 10:03:30;;;;;;;0.00;0.00;;;;;;;20.22;65.55;101190.63;5054032;28;20094;-50
2023/07/22 10:06:00;;;;;;;0.10;0.10;;;;;;;19.94;67.72;101189.88;5054425;28;20025;-51
2023/07/22 10:08:29;;;;;;;0.00;0.00;;;;;;;19.77;69.85;101197.75;5053126;28;20048;-50
2023/07/22 10:10:57;;;;;;;0.00;0.00;;;;;;;19.82;70.35;101200.34;5054364;28;20392;-50
2023/07/22 10:13:24;;;;;;;0.00;0.00;;;;;;;19.72;68.28;101191.66;5054226;28;20055;-46
2023/07/22 10:15:50;;;;;;;0.03;0.03;;;;;;;19.89;69.01;101196.84;5053630;28;20025;-46
2023/07/22 10:18:17;;;;;;;0.03;0.03;;;;;;;19.90;68.42;101194.22;5054213;28;20492;-49
2023/07/22 10:20:43;;;;;;;0.08;0.00;;;;;;;20.05;70.14;101200.28;5053866;28;20150;-45
2023/07/22 10:23:11;;;;;;;0.10;0.10;;;;;;;20.54;68.04;101200.03;5053315;28;20032;-49
2023/07/22 10:25:37;;;;;;;0.00;0.00;;;;;;;20.73;66.44;101202.56;5053978;28;20027;-50
2023/07/22 10:28:03;;;;;;;0.10;0.10;;;;;;;21.21;63.93;101199.56;5054058;28;20029;-51
2023/07/22 10:30:28;;;;;;;0.00;0.00;;;;;;;21.17;62.76;101192.63;5052819;28;20288;-50
2023/07/22 10:32:54;;;;;;;0.00;0.00;;;;;;;21.09;62.28;101197.91;5053447;28;20112;-49
2023/07/22 10:35:31;;;;;;;0.00;0.00;;;;;;;20.94;63.03;101196.31;5053418;28;20039;-50
2023/07/22 10:38:08;;;;;;;;;;;;;;;21.08;63.16;101204.03;5053811;28;20021;-50
2023/07/22 10:40:44;;;;;;;0.00;0.00;;;;;;;20.80;63.56;101196.41;5053437;28;20275;-50
2023/07/22 10:43:10;;;;;;;0.00;0.00;;;;;;;20.96;62.39;101194.53;5053000;28;20049;-51
2023/07/22 10:45:43;;;;;;;0.00;0.00;;;;;;;20.84;59.61;101189.41;5053133;28;20020;-49
2023/07/22 10:48:11;;;;;;;0.00;0.00;;;;;;;20.54;60.37;101181.72;5053358;28;20033;-49
2023/07/22 10:50:47;;;;;;;0.00;0.00;;;;;;;20.37;61.54;101192.28;5052567;28;20028;-45
2023/07/22 10:53:19;;;;;;;0.00;0.00;;;;;;;20.04;61.59;101175.00;5053540;28;20021;-48
2023/07/22 10:56:06;;;;;;;0.00;0.00;;;;;;;20.46;63.18;101185.25;5053273;28;20079;-49
2023/07/22 10:58:55;;;;;;;0.00;0.00;;;;;;;20.58;61.51;101187.81;5052254;28;20385;-50
2023/07/22 11:01:30;;;;;;;0.10;0.00;;;;;;;20.94;58.87;101180.59;5047119;28;20041;-51
2023/07/22 11:04:16;;;;;;;0.00;0.00;;;;;;;21.10;57.51;101188.31;5052743;28;20408;-49
2023/07/22 11:06:47;;;;;;;0.00;0.00;;;;;;;21.05;57.10;101183.13;5052849;28;20192;-49
2023/07/22 11:09:33;;;;;;;0.00;0.00;;;;;;;21.15;57.27;101183.88;5053098;28;20098;-48
2023/07/22 11:12:06;;;;;;;0.00;0.00;;;;;;;21.12;55.62;101181.31;5052332;28;20052;-50
2023/07/22 11:14:34;;;;;;;0.00;0.00;;;;;;;21.08;55.28;101184.84;5052906;28;20021;-48
2023/07/22 11:17:05;;;;;;;0.00;0.00;;;;;;;21.34;56.94;101188.09;5053241;28;20024;-49
2023/07/22 11:19:32;;;;;;;0.00;0.00;;;;;;;21.31;53.99;101175.00;5051928;28;20029;-46